createdAt,value
2019-05-09T00:00:33.553Z,12.27
2019-05-09T00:03:03.482Z,12.29
2019-05-09T00:05:33.478Z,12.29
2019-05-09T00:08:03.533Z,12.28
2019-05-09T00:10:39.439Z,12.27
2019-05-09T00:13:03.361Z,12.18
2019-05-09T00:15:33.280Z,12.10
2019-05-09T00:18:03.909Z,12.00
2019-05-09T00:20:39.601Z,11.85
2019-05-09T00:23:08.004Z,11.75
2019-05-09T00:25:36.433Z,11.64
2019-05-09T00:28:05.546Z,11.59
2019-05-09T00:30:54.017Z,11.48
2019-05-09T00:33:23.738Z,11.42
2019-05-09T00:35:53.412Z,11.43
2019-05-09T00:38:24.067Z,11.47
2019-05-09T00:40:58.407Z,11.40
2019-05-09T00:43:23.758Z,11.34
2019-05-09T00:46:04.087Z,11.28
2019-05-09T00:48:37.263Z,11.21
2019-05-09T00:51:05.889Z,11.14
2019-05-09T00:53:34.429Z,11.10
2019-05-09T00:56:04.264Z,11.01
2019-05-09T00:58:33.587Z,10.95
2019-05-09T01:01:04.316Z,10.98
2019-05-09T01:03:33.920Z,11.01
2019-05-09T01:06:04.243Z,11.06
2019-05-09T01:08:33.696Z,11.06
2019-05-09T01:11:11.406Z,11.05
2019-05-09T01:13:34.157Z,11.07
2019-05-09T01:16:04.558Z,11.09
2019-05-09T01:18:33.246Z,11.16
2019-05-09T01:21:03.723Z,11.20
2019-05-09T01:23:34.006Z,11.25
2019-05-09T01:26:03.858Z,11.25
2019-05-09T01:28:33.888Z,11.30
2019-05-09T01:31:04.226Z,11.38
2019-05-09T01:33:43.931Z,11.43
2019-05-09T01:36:14.385Z,11.47
2019-05-09T01:38:43.391Z,11.54
2019-05-09T01:41:24.640Z,11.59
2019-05-09T01:43:44.138Z,11.60
2019-05-09T01:46:14.269Z,11.62
2019-05-09T01:48:43.133Z,11.68
2019-05-09T01:51:13.895Z,11.72
2019-05-09T01:53:43.811Z,11.77
2019-05-09T01:56:13.994Z,11.76
2019-05-09T01:58:43.135Z,11.81
2019-05-09T02:01:13.431Z,11.80
2019-05-09T02:03:43.649Z,11.83
2019-05-09T02:06:13.684Z,11.84
2019-05-09T02:08:43.818Z,11.83
2019-05-09T02:11:13.379Z,11.82
2019-05-09T02:13:44.049Z,11.76
2019-05-09T02:16:19.830Z,11.75
2019-05-09T02:18:49.940Z,11.77
2019-05-09T02:21:18.410Z,11.76
2019-05-09T02:23:46.816Z,11.77
2019-05-09T02:26:15.374Z,11.79
2019-05-09T02:28:43.772Z,11.81
2019-05-09T02:31:15.736Z,11.79
2019-05-09T02:33:45.533Z,11.75
2019-05-09T02:36:12.588Z,11.77
2019-05-09T02:38:40.996Z,11.80
2019-05-09T02:41:09.665Z,11.83
2019-05-09T02:43:38.882Z,11.83
2019-05-09T02:46:10.014Z,11.83
2019-05-09T02:48:38.801Z,11.82
2019-05-09T02:51:09.308Z,11.83
2019-05-09T02:53:39.442Z,11.80
2019-05-09T02:56:09.191Z,11.80
2019-05-09T02:58:48.414Z,11.81
2019-05-09T03:01:23.632Z,11.77
2019-05-09T03:03:52.134Z,11.75
2019-05-09T03:06:20.544Z,11.69
2019-05-09T03:08:49.392Z,11.67
2019-05-09T03:11:18.837Z,11.66
2019-05-09T03:13:49.590Z,11.65
2019-05-09T03:16:19.126Z,11.65
2019-05-09T03:18:49.449Z,11.64
2019-05-09T03:21:29.737Z,11.63
2019-05-09T03:23:59.380Z,11.63
2019-05-09T03:26:29.645Z,11.59
2019-05-09T03:28:59.976Z,11.55
2019-05-09T03:31:30.236Z,11.53
2019-05-09T03:33:59.707Z,11.50
2019-05-09T03:36:28.350Z,11.49
2019-05-09T03:38:57.833Z,11.51
2019-05-09T03:41:28.127Z,11.55
2019-05-09T03:43:58.576Z,11.56
2019-05-09T03:46:34.470Z,11.56
2019-05-09T03:49:04.622Z,11.55
2019-05-09T03:51:33.030Z,11.54
2019-05-09T03:54:01.438Z,11.49
2019-05-09T03:56:31.582Z,11.47
2019-05-09T03:58:59.994Z,11.48
2019-05-09T04:01:28.404Z,11.43
2019-05-09T04:03:58.374Z,11.41
2019-05-09T04:06:28.230Z,11.33
2019-05-09T04:08:58.504Z,11.21
2019-05-09T04:11:27.686Z,11.12
2019-05-09T04:14:00.724Z,11.02
2019-05-09T04:16:29.132Z,10.96
2019-05-09T04:18:58.269Z,10.90
2019-05-09T04:21:27.993Z,10.86
2019-05-09T04:23:58.474Z,10.88
2019-05-09T04:26:31.973Z,10.94
2019-05-09T04:29:00.387Z,10.98
2019-05-09T04:31:28.798Z,11.02
2019-05-09T04:33:57.546Z,11.03
2019-05-09T04:36:40.739Z,11.07
2019-05-09T04:39:18.040Z,11.09
2019-05-09T04:41:41.957Z,11.11
2019-05-09T04:44:20.961Z,11.09
2019-05-09T04:46:48.270Z,11.05
2019-05-09T04:49:18.492Z,11.04
2019-05-09T04:51:47.963Z,11.01
2019-05-09T04:54:17.782Z,10.90
2019-05-09T04:56:47.477Z,10.81
2019-05-09T04:59:17.911Z,10.78
2019-05-09T05:01:47.890Z,10.78
2019-05-09T05:04:18.070Z,10.79
2019-05-09T05:06:47.812Z,10.78
2019-05-09T05:09:20.473Z,10.78
2019-05-09T05:11:49.087Z,10.82
2019-05-09T05:14:23.228Z,10.80
2019-05-09T05:16:54.810Z,10.77
2019-05-09T05:19:24.099Z,10.86
2019-05-09T05:21:52.610Z,10.95
2019-05-09T05:24:22.661Z,10.99
2019-05-09T05:26:51.071Z,11.03
2019-05-09T05:29:19.597Z,11.04
2019-05-09T05:31:48.376Z,11.03
2019-05-09T05:34:18.463Z,11.05
2019-05-09T05:36:47.653Z,11.06
2019-05-09T05:39:17.870Z,11.06
2019-05-09T05:41:48.409Z,10.99
2019-05-09T05:44:19.733Z,11.00
2019-05-09T05:46:55.642Z,10.99
2019-05-09T05:49:24.055Z,11.00
2019-05-09T05:51:52.618Z,10.98
2019-05-09T05:54:22.108Z,10.97
2019-05-09T05:56:53.629Z,10.99
2019-05-09T05:59:22.265Z,11.07
2019-05-09T06:01:50.657Z,11.14
2019-05-09T06:04:19.064Z,11.15
2019-05-09T06:06:48.127Z,11.16
2019-05-09T06:09:19.061Z,11.15
2019-05-09T06:11:48.480Z,11.17
2019-05-09T06:14:18.437Z,11.20
2019-05-09T06:16:48.551Z,11.26
2019-05-09T06:19:17.947Z,11.31
2019-05-09T06:21:48.478Z,11.35
2019-05-09T06:24:17.716Z,11.36
2019-05-09T06:26:47.878Z,11.40
2019-05-09T06:29:17.836Z,11.46
2019-05-09T06:31:48.488Z,11.49
2019-05-09T06:34:18.731Z,11.50
2019-05-09T06:36:48.835Z,11.51
2019-05-09T06:39:17.958Z,11.54
2019-05-09T06:41:48.409Z,11.59
2019-05-09T06:44:20.677Z,11.66
2019-05-09T06:46:59.117Z,11.69
2019-05-09T06:49:31.895Z,11.72
2019-05-09T06:51:59.323Z,11.79
2019-05-09T06:54:27.990Z,11.87
2019-05-09T06:56:58.447Z,11.99
2019-05-09T06:59:28.322Z,12.12
2019-05-09T07:02:01.520Z,12.23
2019-05-09T07:04:31.567Z,12.37
2019-05-09T07:07:01.615Z,12.40
2019-05-09T07:09:34.523Z,12.37
2019-05-09T07:12:03.004Z,12.34
2019-05-09T07:14:37.534Z,12.33
2019-05-09T07:17:03.390Z,12.37
2019-05-09T07:19:31.802Z,12.39
2019-05-09T07:22:02.223Z,12.36
2019-05-09T07:24:31.343Z,12.31
2019-05-09T07:26:59.821Z,12.31
2019-05-09T07:29:29.881Z,12.38
2019-05-09T07:32:07.529Z,12.49
2019-05-09T07:34:38.214Z,12.63
2019-05-09T07:37:08.383Z,12.73
2019-05-09T07:39:37.995Z,12.78
2019-05-09T07:42:07.690Z,12.86
2019-05-09T07:44:46.276Z,12.94
2019-05-09T07:47:07.541Z,13.03
2019-05-09T07:49:37.705Z,13.13
2019-05-09T07:52:09.890Z,13.24
2019-05-09T07:54:37.719Z,13.35
2019-05-09T07:57:08.346Z,13.43
2019-05-09T07:59:38.743Z,13.51
2019-05-09T08:02:08.765Z,13.58
2019-05-09T08:04:38.621Z,13.59
2019-05-09T08:07:08.385Z,13.62
2019-05-09T08:09:38.797Z,13.70
2019-05-09T08:12:07.560Z,13.77
2019-05-09T08:14:37.773Z,13.80
2019-05-09T08:17:08.614Z,13.86
2019-05-09T08:19:38.019Z,13.95
2019-05-09T08:22:07.994Z,14.08
2019-05-09T08:24:37.987Z,14.20
2019-05-09T08:27:08.547Z,14.31
2019-05-09T08:29:38.725Z,14.38
2019-05-09T08:32:07.633Z,14.45
2019-05-09T08:34:37.760Z,14.49
2019-05-09T08:37:08.133Z,14.52
2019-05-09T08:39:38.315Z,14.52
2019-05-09T08:42:08.513Z,14.55
2019-05-09T08:44:38.265Z,14.66
2019-05-09T08:47:07.843Z,14.88
2019-05-09T08:49:46.458Z,15.04
2019-05-09T08:52:16.614Z,15.18
2019-05-09T08:54:48.542Z,15.28
2019-05-09T08:57:18.200Z,15.29
2019-05-09T08:59:50.233Z,15.41
2019-05-09T09:02:21.938Z,15.52
2019-05-09T09:04:48.944Z,15.61
2019-05-09T09:07:18.946Z,15.70
2019-05-09T09:09:48.290Z,15.85
2019-05-09T09:12:27.048Z,15.89
2019-05-09T09:14:47.815Z,16.00
2019-05-09T09:17:18.755Z,16.14
2019-05-09T09:19:47.850Z,16.31
2019-05-09T09:22:18.036Z,16.33
2019-05-09T09:24:48.161Z,16.29
2019-05-09T09:27:18.236Z,16.38
2019-05-09T09:29:48.061Z,16.52
2019-05-09T09:32:18.987Z,16.58
2019-05-09T09:34:48.462Z,16.64
2019-05-09T09:37:18.469Z,16.74
2019-05-09T09:39:48.870Z,16.77
2019-05-09T09:42:19.790Z,16.82
2019-05-09T09:44:48.169Z,17.04
2019-05-09T09:47:22.310Z,17.22
2019-05-09T09:49:49.057Z,17.42
2019-05-09T09:52:18.716Z,17.65
2019-05-09T09:54:48.197Z,17.72
2019-05-09T09:57:19.012Z,17.83
2019-05-09T09:59:48.991Z,17.97
2019-05-09T10:02:19.040Z,18.10
2019-05-09T10:04:47.442Z,18.28
2019-05-09T10:07:15.888Z,18.45
2019-05-09T10:09:44.364Z,18.54
2019-05-09T10:12:12.836Z,18.46
2019-05-09T10:14:43.184Z,18.42
2019-05-09T10:17:13.233Z,18.34
2019-05-09T10:19:43.274Z,18.31
2019-05-09T10:22:13.469Z,18.41
2019-05-09T10:24:41.881Z,18.40
2019-05-09T10:27:14.734Z,18.45
2019-05-09T10:29:43.281Z,18.59
2019-05-09T10:32:18.242Z,18.75
2019-05-09T10:34:48.860Z,18.88
2019-05-09T10:37:18.579Z,18.79
2019-05-09T10:39:49.004Z,18.59
2019-05-09T10:42:34.662Z,18.56
2019-05-09T10:45:07.944Z,18.64
2019-05-09T10:47:37.802Z,18.68
2019-05-09T10:50:08.608Z,18.69
2019-05-09T10:52:37.130Z,18.75
2019-05-09T10:55:09.045Z,18.85
2019-05-09T10:57:41.725Z,18.97
2019-05-09T11:00:08.918Z,18.92
2019-05-09T11:02:37.390Z,18.89
2019-05-09T11:05:08.423Z,18.85
2019-05-09T11:07:38.104Z,18.78
2019-05-09T11:10:23.978Z,18.64
2019-05-09T11:12:37.375Z,18.43
2019-05-09T11:15:08.999Z,18.21
2019-05-09T11:17:38.856Z,18.08
2019-05-09T11:20:08.715Z,18.06
2019-05-09T11:22:38.665Z,18.11
2019-05-09T11:25:08.760Z,18.16
2019-05-09T11:27:38.904Z,18.24
2019-05-09T11:30:08.475Z,18.31
2019-05-09T11:32:38.575Z,18.39
2019-05-09T11:35:08.966Z,18.45
2019-05-09T11:37:38.351Z,18.47
2019-05-09T11:40:07.454Z,18.41
2019-05-09T11:42:37.955Z,18.30
2019-05-09T11:45:07.782Z,18.26
2019-05-09T11:47:42.643Z,18.24
2019-05-09T11:50:08.767Z,18.12
2019-05-09T11:52:38.276Z,17.96
2019-05-09T11:55:09.332Z,17.89
2019-05-09T11:57:38.417Z,17.78
2019-05-09T12:00:08.296Z,17.69
2019-05-09T12:02:38.543Z,17.69
2019-05-09T12:05:08.756Z,17.67
2019-05-09T12:07:38.046Z,17.63
2019-05-09T12:10:07.943Z,17.58
2019-05-09T12:12:38.859Z,17.50
2019-05-09T12:15:10.792Z,17.40
2019-05-09T12:17:53.253Z,17.24
2019-05-09T12:20:13.464Z,17.11
2019-05-09T12:22:40.193Z,16.98
2019-05-09T12:25:09.133Z,16.82
2019-05-09T12:27:37.598Z,16.69
2019-05-09T12:30:09.334Z,16.52
2019-05-09T12:32:38.506Z,16.41
2019-05-09T12:37:56.145Z,16.20
2019-05-09T12:40:24.578Z,16.01
2019-05-09T12:42:52.980Z,15.86
2019-05-09T12:45:21.472Z,15.88
2019-05-09T12:48:05.214Z,15.92
2019-05-09T12:50:20.032Z,15.97
2019-05-09T12:52:48.840Z,16.20
2019-05-09T12:55:17.965Z,16.39
2019-05-09T12:57:48.821Z,16.44
2019-05-09T13:00:18.661Z,16.53
2019-05-09T13:02:47.484Z,16.61
2019-05-09T13:05:18.119Z,16.61
2019-05-09T13:07:48.101Z,16.69
2019-05-09T13:10:19.359Z,16.85
2019-05-09T13:12:48.466Z,17.16
2019-05-09T13:15:18.828Z,17.44
2019-05-09T13:17:49.121Z,17.61
2019-05-09T13:20:18.129Z,17.68
2019-05-09T13:22:47.763Z,17.76
2019-05-09T13:25:18.927Z,17.93
2019-05-09T13:27:47.882Z,18.15
2019-05-09T13:30:18.924Z,18.36
2019-05-09T13:32:48.420Z,18.60
2019-05-09T13:35:19.775Z,18.81
2019-05-09T13:37:49.145Z,18.98
2019-05-09T13:40:18.924Z,19.10
2019-05-09T13:42:49.011Z,19.23
2019-05-09T13:45:18.599Z,19.31
2019-05-09T13:47:48.448Z,19.44
2019-05-09T13:50:18.586Z,19.65
2019-05-09T13:52:48.001Z,19.84
2019-05-09T13:55:17.799Z,20.01
2019-05-09T13:57:48.524Z,20.14
2019-05-09T14:00:18.406Z,20.20
2019-05-09T14:02:48.770Z,20.03
2019-05-09T14:05:19.076Z,20.04
2019-05-09T14:07:49.213Z,20.15
2019-05-09T14:10:18.153Z,20.22
2019-05-09T14:13:02.088Z,20.22
2019-05-09T14:15:18.448Z,20.03
2019-05-09T14:17:53.173Z,19.74
2019-05-09T14:20:18.011Z,19.65
2019-05-09T14:22:49.033Z,19.56
2019-05-09T14:25:19.622Z,19.58
2019-05-09T14:27:49.736Z,19.44
2019-05-09T14:30:19.802Z,19.21
2019-05-09T14:32:49.722Z,19.11
2019-05-09T14:35:18.492Z,19.10
2019-05-09T14:37:48.795Z,19.01
2019-05-09T14:40:17.744Z,19.11
2019-05-09T14:42:46.145Z,19.10
2019-05-09T14:45:14.714Z,19.08
2019-05-09T14:47:43.219Z,19.03
2019-05-09T14:50:12.180Z,18.99
2019-05-09T14:52:40.597Z,19.00
2019-05-09T14:55:29.949Z,19.13
2019-05-09T14:57:58.364Z,19.17
2019-05-09T15:00:28.369Z,19.08
2019-05-09T15:02:58.065Z,19.02
2019-05-09T15:05:27.861Z,18.91
2019-05-09T15:07:59.237Z,18.76
2019-05-09T15:10:26.799Z,18.64
2019-05-09T15:12:55.287Z,18.49
2019-05-09T15:15:23.753Z,18.34
2019-05-09T15:17:52.680Z,18.20
2019-05-09T15:20:21.096Z,17.98
2019-05-09T15:22:49.497Z,17.10
2019-05-09T15:25:19.406Z,15.21
2019-05-09T15:27:48.350Z,13.99
2019-05-09T15:30:18.677Z,13.64
2019-05-09T15:32:47.569Z,13.46
2019-05-09T15:35:18.281Z,13.48
2019-05-09T15:37:48.037Z,13.53
2019-05-09T15:40:17.724Z,13.63
2019-05-09T15:42:47.929Z,13.76
2019-05-09T15:45:18.305Z,13.90
2019-05-09T15:47:48.291Z,14.05
2019-05-09T15:50:22.743Z,14.21
2019-05-09T15:52:47.126Z,14.40
2019-05-09T15:55:17.721Z,14.65
2019-05-09T15:57:48.414Z,14.84
2019-05-09T16:00:19.422Z,14.99
2019-05-09T16:02:48.596Z,15.23
2019-05-09T16:05:18.056Z,15.47
2019-05-09T16:07:48.254Z,15.74
2019-05-09T16:10:17.867Z,16.02
2019-05-09T16:12:48.640Z,16.31
2019-05-09T16:15:18.274Z,16.58
2019-05-09T16:17:48.435Z,16.81
2019-05-09T16:20:23.026Z,17.02
2019-05-09T16:22:48.358Z,17.24
2019-05-09T16:25:18.809Z,17.39
2019-05-09T16:27:48.434Z,17.56
2019-05-09T16:30:17.763Z,17.63
2019-05-09T16:32:48.066Z,17.52
2019-05-09T16:35:18.216Z,17.30
2019-05-09T16:37:58.375Z,17.28
2019-05-09T16:40:17.158Z,17.36
2019-05-09T16:42:47.551Z,17.38
2019-05-09T16:45:18.018Z,17.36
2019-05-09T16:47:48.264Z,17.25
2019-05-09T16:50:18.006Z,17.11
2019-05-09T16:52:48.874Z,17.04
2019-05-09T16:55:18.423Z,17.07
2019-05-09T16:57:46.837Z,17.13
2019-05-09T17:00:18.495Z,17.13
2019-05-09T17:02:48.156Z,16.96
2019-05-09T17:05:17.432Z,16.70
2019-05-09T17:07:47.629Z,16.64
2019-05-09T17:10:17.764Z,16.69
2019-05-09T17:12:47.864Z,16.71
2019-05-09T17:15:19.203Z,16.73
2019-05-09T17:17:48.004Z,16.75
2019-05-09T17:20:19.383Z,16.80
2019-05-09T17:23:13.537Z,16.86
2019-05-09T17:25:38.309Z,16.77
2019-05-09T17:28:06.342Z,16.76
2019-05-09T17:30:34.869Z,16.81
2019-05-09T17:33:04.377Z,16.74
2019-05-09T17:35:33.132Z,16.67
2019-05-09T17:38:01.574Z,16.58
2019-05-09T17:40:30.227Z,16.45
2019-05-09T17:42:59.215Z,16.36
2019-05-09T17:45:27.926Z,16.29
2019-05-09T17:47:59.851Z,16.26
2019-05-09T17:50:28.657Z,16.19
2019-05-09T17:52:57.882Z,16.16
2019-05-09T17:55:26.445Z,16.11
2019-05-09T17:57:54.917Z,16.06
2019-05-09T18:00:24.263Z,16.03
2019-05-09T18:02:52.667Z,16.04
2019-05-09T18:05:21.210Z,16.03
2019-05-09T18:07:49.647Z,16.02
2019-05-09T18:10:20.065Z,15.98
2019-05-09T18:12:49.107Z,15.93
2019-05-09T18:15:18.763Z,15.92
2019-05-09T18:17:47.982Z,15.90
2019-05-09T18:20:17.797Z,15.81
2019-05-09T18:22:47.912Z,15.74
2019-05-09T18:25:18.765Z,15.64
2019-05-09T18:27:48.811Z,15.47
2019-05-09T18:30:18.650Z,15.34
2019-05-09T18:33:03.841Z,15.29
2019-05-09T18:35:33.047Z,15.25
2019-05-09T18:38:02.023Z,15.20
2019-05-09T18:40:30.500Z,15.16
2019-05-09T18:42:58.936Z,15.14
2019-05-09T18:45:28.436Z,15.08
2019-05-09T18:47:58.006Z,15.03
2019-05-09T18:50:27.133Z,15.01
2019-05-09T18:52:55.698Z,14.99
2019-05-09T18:55:24.180Z,14.98
2019-05-09T18:57:52.776Z,14.95
2019-05-09T19:00:21.921Z,14.94
2019-05-09T19:02:51.065Z,14.91
2019-05-09T19:05:19.769Z,14.89
2019-05-09T19:07:48.166Z,14.89
2019-05-09T19:10:16.805Z,14.91
2019-05-09T19:12:45.399Z,14.90
2019-05-09T19:15:15.888Z,14.91
2019-05-09T19:17:55.052Z,14.88
2019-05-09T19:20:28.332Z,14.86
2019-05-09T19:22:56.811Z,14.83
2019-05-09T19:25:25.239Z,14.84
2019-05-09T19:27:53.719Z,14.82
2019-05-09T19:30:22.138Z,14.81
2019-05-09T19:32:50.880Z,14.80
2019-05-09T19:35:19.322Z,14.81
2019-05-09T19:37:47.742Z,14.75
2019-05-09T19:40:20.049Z,14.72
2019-05-09T19:42:46.841Z,14.69
2019-05-09T19:45:17.066Z,14.66
2019-05-09T19:47:45.750Z,14.60
2019-05-09T19:50:14.693Z,14.59
2019-05-09T19:52:43.131Z,14.58
2019-05-09T19:55:12.299Z,14.57
2019-05-09T19:57:40.728Z,14.53
2019-05-09T20:00:10.118Z,14.54
2019-05-09T20:02:38.668Z,14.55
2019-05-09T20:05:08.781Z,14.56
2019-05-09T20:07:37.203Z,14.55
2019-05-09T20:10:11.944Z,14.52
2019-05-09T20:12:42.070Z,14.49
2019-05-09T20:15:12.844Z,14.48
2019-05-09T20:17:41.478Z,14.50
2019-05-09T20:20:09.974Z,14.48
2019-05-09T20:22:51.858Z,14.43
2019-05-09T20:25:08.822Z,14.41
2019-05-09T20:27:37.239Z,14.37
2019-05-09T20:30:07.137Z,14.35
2019-05-09T20:32:37.327Z,14.37
2019-05-09T20:35:09.126Z,14.38
2019-05-09T20:37:37.678Z,14.34
2019-05-09T20:40:09.621Z,14.30
2019-05-09T20:42:38.345Z,14.29
2019-05-09T20:45:07.680Z,14.18
2019-05-09T20:47:36.320Z,14.12
2019-05-09T20:50:06.642Z,14.12
2019-05-09T20:52:35.226Z,14.15
2019-05-09T20:55:04.621Z,14.17
2019-05-09T20:57:33.209Z,14.20
2019-05-09T21:00:01.962Z,14.24
2019-05-09T21:02:30.616Z,14.25
2019-05-09T21:04:59.274Z,14.25
2019-05-09T21:07:27.864Z,14.24
2019-05-09T21:09:56.641Z,14.22
2019-05-09T21:12:25.234Z,14.22
2019-05-09T21:14:55.327Z,14.20
2019-05-09T21:17:24.128Z,14.17
2019-05-09T21:19:52.748Z,14.15
2019-05-09T21:22:21.343Z,14.14
2019-05-09T21:24:49.952Z,14.12
2019-05-09T21:27:18.534Z,14.12
2019-05-09T21:29:47.134Z,14.11
2019-05-09T21:32:15.933Z,14.12
2019-05-09T21:34:44.388Z,14.13
2019-05-09T21:37:14.035Z,14.13
2019-05-09T21:39:42.577Z,14.13
2019-05-09T21:42:10.991Z,14.11
2019-05-09T21:44:39.399Z,14.10
2019-05-09T21:47:07.946Z,14.08
2019-05-09T21:49:36.425Z,14.04
2019-05-09T21:52:04.834Z,13.98
2019-05-09T21:54:33.586Z,13.96
2019-05-09T21:57:02.001Z,13.94
2019-05-09T21:59:30.406Z,13.92
2019-05-09T22:01:59.353Z,13.89
2019-05-09T22:04:27.854Z,13.86
2019-05-09T22:06:56.257Z,13.79
2019-05-09T22:09:24.678Z,13.73
2019-05-09T22:11:53.155Z,13.69
2019-05-09T22:14:21.643Z,13.67
2019-05-09T22:16:50.226Z,13.64
2019-05-09T22:19:18.641Z,13.64
2019-05-09T22:21:47.058Z,13.65
2019-05-09T22:24:15.546Z,13.64
2019-05-09T22:26:43.947Z,13.61
2019-05-09T22:29:12.679Z,13.59
2019-05-09T22:31:41.109Z,13.57
2019-05-09T22:34:09.513Z,13.51
2019-05-09T22:36:37.917Z,13.49
2019-05-09T22:39:08.300Z,13.51
2019-05-09T22:41:36.771Z,13.49
2019-05-09T22:44:05.183Z,13.46
2019-05-09T22:46:33.603Z,13.42
2019-05-09T22:49:02.040Z,13.34
2019-05-09T22:51:30.417Z,13.15
2019-05-09T22:54:11.532Z,12.98
2019-05-09T22:56:28.983Z,12.80
2019-05-09T22:58:57.403Z,12.71
2019-05-09T23:01:25.877Z,12.62
2019-05-09T23:03:54.277Z,12.48
2019-05-09T23:06:22.699Z,12.45
2019-05-09T23:08:52.216Z,12.49
2019-05-09T23:11:20.788Z,12.47
2019-05-09T23:13:52.475Z,12.45
2019-05-09T23:16:23.585Z,12.44
2019-05-09T23:18:52.356Z,12.45
2019-05-09T23:21:21.705Z,12.41
2019-05-09T23:23:57.894Z,12.37
2019-05-09T23:26:26.298Z,12.43
2019-05-09T23:28:54.713Z,12.45
2019-05-09T23:31:28.108Z,12.45
2019-05-09T23:33:56.515Z,12.42
2019-05-09T23:36:24.926Z,12.36
2019-05-09T23:38:58.061Z,12.33
2019-05-09T23:41:26.721Z,12.30
2019-05-09T23:43:56.673Z,12.25
2019-05-09T23:46:25.228Z,12.22
2019-05-09T23:48:53.647Z,12.18
2019-05-09T23:51:22.367Z,12.16
2019-05-09T23:53:53.047Z,12.18
2019-05-09T23:56:39.953Z,12.19
2019-05-09T23:59:27.325Z,12.23
